sensor_id;sensor_type;location;lat;lon;timestamp;P1;durP1;ratioP1;P2;durP2;ratioP2
11496;SDS011;5805;51.542;7.230;2023-02-20T00:00:17;2.60;;;2.40;;
11496;SDS011;5805;51.542;7.230;2023-02-20T00:02:46;6.18;;;2.30;;
11496;SDS011;5805;51.542;7.230;2023-02-20T00:05:12;3.10;;;2.55;;
11496;SDS011;5805;51.542;7.230;2023-02-20T00:07:38;4.07;;;2.25;;
11496;SDS011;5805;51.542;7.230;2023-02-20T00:10:04;3.75;;;2.30;;
11496;SDS011;5805;51.542;7.230;2023-02-20T00:12:31;4.38;;;2.45;;
11496;SDS011;5805;51.542;7.230;2023-02-20T00:14:57;3.53;;;2.35;;
11496;SDS011;5805;51.542;7.230;2023-02-20T00:17:24;5.80;;;2.67;;
11496;SDS011;5805;51.542;7.230;2023-02-20T00:19:50;5.28;;;2.95;;
11496;SDS011;5805;51.542;7.230;2023-02-20T00:22:15;3.60;;;2.85;;
11496;SDS011;5805;51.542;7.230;2023-02-20T00:24:41;6.68;;;3.83;;
11496;SDS011;5805;51.542;7.230;2023-02-20T00:27:07;3.83;;;3.45;;
11496;SDS011;5805;51.542;7.230;2023-02-20T00:29:33;4.90;;;3.80;;
11496;SDS011;5805;51.542;7.230;2023-02-20T00:31:58;7.28;;;3.95;;
11496;SDS011;5805;51.542;7.230;2023-02-20T00:34:26;5.88;;;4.32;;
11496;SDS011;5805;51.542;7.230;2023-02-20T00:36:53;6.47;;;4.78;;
11496;SDS011;5805;51.542;7.230;2023-02-20T00:39:19;8.38;;;4.35;;
11496;SDS011;5805;51.542;7.230;2023-02-20T00:41:45;7.40;;;4.68;;
11496;SDS011;5805;51.542;7.230;2023-02-20T00:44:11;6.20;;;4.90;;
11496;SDS011;5805;51.542;7.230;2023-02-20T00:46:36;8.45;;;5.63;;
11496;SDS011;5805;51.542;7.230;2023-02-20T00:49:02;8.63;;;5.65;;
11496;SDS011;5805;51.542;7.230;2023-02-20T00:51:30;7.28;;;5.40;;
11496;SDS011;5805;51.542;7.230;2023-02-20T00:53:55;8.15;;;5.40;;
11496;SDS011;5805;51.542;7.230;2023-02-20T00:56:21;8.77;;;6.20;;
11496;SDS011;5805;51.542;7.230;2023-02-20T00:58:47;10.95;;;6.50;;
11496;SDS011;5805;51.542;7.230;2023-02-20T01:01:12;11.13;;;6.78;;
11496;SDS011;5805;51.542;7.230;2023-02-20T01:03:38;7.45;;;5.75;;
11496;SDS011;5805;51.542;7.230;2023-02-20T01:06:04;8.73;;;6.60;;
11496;SDS011;5805;51.542;7.230;2023-02-20T01:08:32;8.07;;;6.13;;
11496;SDS011;5805;51.542;7.230;2023-02-20T01:10:57;10.10;;;6.85;;
11496;SDS011;5805;51.542;7.230;2023-02-20T01:13:23;10.05;;;6.63;;
11496;SDS011;5805;51.542;7.230;2023-02-20T01:15:49;11.80;;;7.40;;
11496;SDS011;5805;51.542;7.230;2023-02-20T01:18:14;12.02;;;6.93;;
11496;SDS011;5805;51.542;7.230;2023-02-20T01:20:40;10.50;;;7.18;;
11496;SDS011;5805;51.542;7.230;2023-02-20T01:23:06;10.93;;;7.18;;
11496;SDS011;5805;51.542;7.230;2023-02-20T01:25:33;12.85;;;7.80;;
11496;SDS011;5805;51.542;7.230;2023-02-20T01:27:59;9.10;;;7.50;;
11496;SDS011;5805;51.542;7.230;2023-02-20T01:30:25;11.30;;;7.70;;
11496;SDS011;5805;51.542;7.230;2023-02-20T01:32:50;10.30;;;8.02;;
11496;SDS011;5805;51.542;7.230;2023-02-20T01:35:16;11.18;;;8.05;;
11496;SDS011;5805;51.542;7.230;2023-02-20T01:37:42;10.15;;;7.70;;
11496;SDS011;5805;51.542;7.230;2023-02-20T01:40:12;15.32;;;10.65;;
11496;SDS011;5805;51.542;7.230;2023-02-20T01:42:41;19.25;;;14.98;;
11496;SDS011;5805;51.542;7.230;2023-02-20T01:45:14;22.05;;;17.30;;
11496;SDS011;5805;51.542;7.230;2023-02-20T01:47:41;21.55;;;17.35;;
11496;SDS011;5805;51.542;7.230;2023-02-20T01:50:07;23.70;;;18.63;;
11496;SDS011;5805;51.542;7.230;2023-02-20T01:52:34;22.08;;;17.30;;
11496;SDS011;5805;51.542;7.230;2023-02-20T01:55:02;21.83;;;15.82;;
11496;SDS011;5805;51.542;7.230;2023-02-20T01:57:31;18.52;;;12.43;;
11496;SDS011;5805;51.542;7.230;2023-02-20T02:00:02;12.55;;;9.52;;
11496;SDS011;5805;51.542;7.230;2023-02-20T02:02:32;11.50;;;8.10;;
11496;SDS011;5805;51.542;7.230;2023-02-20T02:04:59;9.20;;;7.10;;
11496;SDS011;5805;51.542;7.230;2023-02-20T02:07:26;11.15;;;6.80;;
11496;SDS011;5805;51.542;7.230;2023-02-20T02:09:54;10.13;;;6.13;;
11496;SDS011;5805;51.542;7.230;2023-02-20T02:12:24;9.25;;;6.13;;
11496;SDS011;5805;51.542;7.230;2023-02-20T02:14:50;8.30;;;6.00;;
11496;SDS011;5805;51.542;7.230;2023-02-20T02:17:24;7.28;;;5.80;;
11496;SDS011;5805;51.542;7.230;2023-02-20T02:23:40;9.75;;;6.32;;
11496;SDS011;5805;51.542;7.230;2023-02-20T02:35:55;10.75;;;6.57;;
11496;SDS011;5805;51.542;7.230;2023-02-20T02:38:35;8.32;;;6.45;;
11496;SDS011;5805;51.542;7.230;2023-02-20T02:41:10;11.52;;;7.50;;
11496;SDS011;5805;51.542;7.230;2023-02-20T02:43:47;11.18;;;7.45;;
11496;SDS011;5805;51.542;7.230;2023-02-20T02:46:20;11.43;;;7.20;;
11496;SDS011;5805;51.542;7.230;2023-02-20T02:48:52;12.57;;;7.53;;
11496;SDS011;5805;51.542;7.230;2023-02-20T02:51:25;12.18;;;7.80;;
11496;SDS011;5805;51.542;7.230;2023-02-20T02:54:07;11.48;;;7.63;;
11496;SDS011;5805;51.542;7.230;2023-02-20T02:56:35;12.88;;;7.47;;
11496;SDS011;5805;51.542;7.230;2023-02-20T02:59:04;9.63;;;7.22;;
11496;SDS011;5805;51.542;7.230;2023-02-20T03:01:31;10.73;;;7.90;;
11496;SDS011;5805;51.542;7.230;2023-02-20T03:04:01;14.13;;;8.20;;
11496;SDS011;5805;51.542;7.230;2023-02-20T03:06:33;10.57;;;8.18;;
11496;SDS011;5805;51.542;7.230;2023-02-20T03:09:04;11.30;;;7.65;;
11496;SDS011;5805;51.542;7.230;2023-02-20T03:11:34;11.00;;;8.13;;
11496;SDS011;5805;51.542;7.230;2023-02-20T03:14:03;12.43;;;7.88;;
11496;SDS011;5805;51.542;7.230;2023-02-20T03:16:32;11.60;;;7.43;;
11496;SDS011;5805;51.542;7.230;2023-02-20T03:19:06;12.60;;;8.10;;
11496;SDS011;5805;51.542;7.230;2023-02-20T03:21:37;16.13;;;9.38;;
11496;SDS011;5805;51.542;7.230;2023-02-20T03:24:06;13.85;;;8.07;;
11496;SDS011;5805;51.542;7.230;2023-02-20T03:26:36;12.10;;;8.38;;
11496;SDS011;5805;51.542;7.230;2023-02-20T03:29:05;14.13;;;7.78;;
11496;SDS011;5805;51.542;7.230;2023-02-20T03:31:33;10.82;;;7.97;;
11496;SDS011;5805;51.542;7.230;2023-02-20T03:34:02;13.00;;;7.82;;
11496;SDS011;5805;51.542;7.230;2023-02-20T03:36:35;12.20;;;7.50;;
11496;SDS011;5805;51.542;7.230;2023-02-20T03:39:06;11.68;;;8.13;;
11496;SDS011;5805;51.542;7.230;2023-02-20T03:41:35;10.20;;;7.38;;
11496;SDS011;5805;51.542;7.230;2023-02-20T03:44:04;11.00;;;7.18;;
11496;SDS011;5805;51.542;7.230;2023-02-20T03:46:32;10.68;;;7.63;;
11496;SDS011;5805;51.542;7.230;2023-02-20T03:49:02;9.00;;;6.55;;
11496;SDS011;5805;51.542;7.230;2023-02-20T03:51:30;10.85;;;6.95;;
11496;SDS011;5805;51.542;7.230;2023-02-20T03:53:57;13.07;;;7.25;;
11496;SDS011;5805;51.542;7.230;2023-02-20T03:56:24;15.05;;;7.78;;
11496;SDS011;5805;51.542;7.230;2023-02-20T03:59:00;10.90;;;7.45;;
11496;SDS011;5805;51.542;7.230;2023-02-20T04:01:30;10.05;;;6.97;;
11496;SDS011;5805;51.542;7.230;2023-02-20T04:03:58;12.85;;;7.10;;
11496;SDS011;5805;51.542;7.230;2023-02-20T04:06:24;11.40;;;6.75;;
11496;SDS011;5805;51.542;7.230;2023-02-20T04:08:54;11.70;;;6.82;;
11496;SDS011;5805;51.542;7.230;2023-02-20T04:11:27;13.75;;;7.15;;
11496;SDS011;5805;51.542;7.230;2023-02-20T04:13:56;12.60;;;7.60;;
11496;SDS011;5805;51.542;7.230;2023-02-20T04:16:24;10.15;;;6.72;;
11496;SDS011;5805;51.542;7.230;2023-02-20T04:18:50;15.15;;;6.63;;
11496;SDS011;5805;51.542;7.230;2023-02-20T04:21:18;12.05;;;7.43;;
11496;SDS011;5805;51.542;7.230;2023-02-20T04:23:48;11.65;;;6.75;;
11496;SDS011;5805;51.542;7.230;2023-02-20T04:26:22;12.60;;;6.70;;
11496;SDS011;5805;51.542;7.230;2023-02-20T04:28:48;12.85;;;6.78;;
11496;SDS011;5805;51.542;7.230;2023-02-20T04:31:14;10.75;;;6.80;;
11496;SDS011;5805;51.542;7.230;2023-02-20T04:33:42;11.57;;;6.72;;
11496;SDS011;5805;51.542;7.230;2023-02-20T04:36:08;9.82;;;6.03;;
11496;SDS011;5805;51.542;7.230;2023-02-20T04:38:34;10.95;;;7.50;;
11496;SDS011;5805;51.542;7.230;2023-02-20T04:41:00;11.95;;;6.65;;
11496;SDS011;5805;51.542;7.230;2023-02-20T04:43:27;10.90;;;6.32;;
11496;SDS011;5805;51.542;7.230;2023-02-20T04:45:53;12.23;;;6.50;;
11496;SDS011;5805;51.542;7.230;2023-02-20T04:48:18;11.80;;;6.75;;
11496;SDS011;5805;51.542;7.230;2023-02-20T04:50:44;11.07;;;6.85;;
11496;SDS011;5805;51.542;7.230;2023-02-20T05:02:53;13.20;;;6.68;;
11496;SDS011;5805;51.542;7.230;2023-02-20T05:05:20;9.18;;;6.35;;
11496;SDS011;5805;51.542;7.230;2023-02-20T05:07:48;8.75;;;5.55;;
11496;SDS011;5805;51.542;7.230;2023-02-20T05:10:19;10.15;;;6.13;;
11496;SDS011;5805;51.542;7.230;2023-02-20T05:12:46;9.70;;;6.10;;
11496;SDS011;5805;51.542;7.230;2023-02-20T05:15:12;13.63;;;5.82;;
11496;SDS011;5805;51.542;7.230;2023-02-20T05:17:40;11.75;;;6.75;;
11496;SDS011;5805;51.542;7.230;2023-02-20T05:20:06;12.32;;;6.10;;
11496;SDS011;5805;51.542;7.230;2023-02-20T05:22:33;8.70;;;5.40;;
11496;SDS011;5805;51.542;7.230;2023-02-20T05:24:59;12.93;;;5.97;;
11496;SDS011;5805;51.542;7.230;2023-02-20T05:27:25;9.70;;;5.90;;
11496;SDS011;5805;51.542;7.230;2023-02-20T05:29:52;11.95;;;6.07;;
11496;SDS011;5805;51.542;7.230;2023-02-20T05:32:20;9.48;;;5.47;;
11496;SDS011;5805;51.542;7.230;2023-02-20T05:34:48;9.98;;;5.60;;
11496;SDS011;5805;51.542;7.230;2023-02-20T05:37:15;9.43;;;5.03;;
11496;SDS011;5805;51.542;7.230;2023-02-20T05:39:42;13.15;;;6.20;;
11496;SDS011;5805;51.542;7.230;2023-02-20T05:42:08;9.10;;;5.63;;
11496;SDS011;5805;51.542;7.230;2023-02-20T05:44:34;10.18;;;5.63;;
11496;SDS011;5805;51.542;7.230;2023-02-20T05:47:00;7.25;;;4.75;;
11496;SDS011;5805;51.542;7.230;2023-02-20T05:49:27;7.28;;;4.60;;
11496;SDS011;5805;51.542;7.230;2023-02-20T05:51:55;8.93;;;5.07;;
11496;SDS011;5805;51.542;7.230;2023-02-20T05:54:22;8.40;;;5.20;;
11496;SDS011;5805;51.542;7.230;2023-02-20T05:56:48;11.15;;;5.60;;
11496;SDS011;5805;51.542;7.230;2023-02-20T05:59:15;6.78;;;4.57;;
11496;SDS011;5805;51.542;7.230;2023-02-20T06:01:43;9.65;;;5.88;;
11496;SDS011;5805;51.542;7.230;2023-02-20T06:04:10;11.23;;;5.78;;
11496;SDS011;5805;51.542;7.230;2023-02-20T06:06:36;13.38;;;5.93;;
11496;SDS011;5805;51.542;7.230;2023-02-20T06:09:05;11.88;;;5.90;;
11496;SDS011;5805;51.542;7.230;2023-02-20T06:11:32;7.07;;;4.47;;
11496;SDS011;5805;51.542;7.230;2023-02-20T06:13:58;8.50;;;4.90;;
